sensor_id;sensor_type;location;lat;lon;timestamp;P1;durP1;ratioP1;P2;durP2;ratioP2
54360;SDS011;40258;53.936;27.540;2022-07-04T00:02:13;14.38;;;12.40;;
54360;SDS011;40258;53.936;27.540;2022-07-04T00:04:41;20.27;;;13.52;;
54360;SDS011;40258;53.936;27.540;2022-07-04T00:07:10;16.45;;;13.85;;
54360;SDS011;40258;53.936;27.540;2022-07-04T00:09:40;19.42;;;14.65;;
54360;SDS011;40258;53.936;27.540;2022-07-04T00:12:08;16.77;;;14.05;;
54360;SDS011;40258;53.936;27.540;2022-07-04T00:14:37;17.30;;;14.10;;
54360;SDS011;40258;53.936;27.540;2022-07-04T00:17:05;16.23;;;13.25;;
54360;SDS011;40258;53.936;27.540;2022-07-04T00:19:35;14.95;;;12.27;;
54360;SDS011;40258;53.936;27.540;2022-07-04T00:22:03;15.60;;;13.70;;
54360;SDS011;40258;53.936;27.540;2022-07-04T00:24:32;13.63;;;12.15;;
54360;SDS011;40258;53.936;27.540;2022-07-04T00:27:02;16.15;;;13.65;;
54360;SDS011;40258;53.936;27.540;2022-07-04T00:29:32;14.98;;;12.73;;
54360;SDS011;40258;53.936;27.540;2022-07-04T00:32:01;15.40;;;12.77;;
54360;SDS011;40258;53.936;27.540;2022-07-04T00:34:30;17.27;;;13.43;;
54360;SDS011;40258;53.936;27.540;2022-07-04T00:36:58;14.77;;;12.35;;
54360;SDS011;40258;53.936;27.540;2022-07-04T00:39:27;16.60;;;12.57;;
54360;SDS011;40258;53.936;27.540;2022-07-04T00:41:56;17.17;;;13.43;;
54360;SDS011;40258;53.936;27.540;2022-07-04T00:44:26;15.57;;;12.80;;
54360;SDS011;40258;53.936;27.540;2022-07-04T00:46:55;16.52;;;13.63;;
54360;SDS011;40258;53.936;27.540;2022-07-04T00:49:25;21.65;;;15.18;;
54360;SDS011;40258;53.936;27.540;2022-07-04T00:51:53;18.05;;;15.27;;
54360;SDS011;40258;53.936;27.540;2022-07-04T00:54:24;16.90;;;14.07;;
54360;SDS011;40258;53.936;27.540;2022-07-04T00:56:56;16.95;;;14.65;;
54360;SDS011;40258;53.936;27.540;2022-07-04T00:59:27;17.50;;;14.02;;
54360;SDS011;40258;53.936;27.540;2022-07-04T01:01:56;17.10;;;14.45;;
54360;SDS011;40258;53.936;27.540;2022-07-04T01:04:25;17.75;;;14.02;;
54360;SDS011;40258;53.936;27.540;2022-07-04T01:06:53;19.30;;;13.48;;
54360;SDS011;40258;53.936;27.540;2022-07-04T01:09:23;18.33;;;14.02;;
54360;SDS011;40258;53.936;27.540;2022-07-04T01:11:51;18.75;;;14.15;;
54360;SDS011;40258;53.936;27.540;2022-07-04T01:14:20;17.42;;;13.55;;
54360;SDS011;40258;53.936;27.540;2022-07-04T01:16:50;18.08;;;14.90;;
54360;SDS011;40258;53.936;27.540;2022-07-04T01:19:18;16.08;;;14.38;;
54360;SDS011;40258;53.936;27.540;2022-07-04T01:21:48;17.33;;;14.13;;
54360;SDS011;40258;53.936;27.540;2022-07-04T01:24:17;16.58;;;13.90;;
54360;SDS011;40258;53.936;27.540;2022-07-04T01:26:46;18.75;;;15.25;;
54360;SDS011;40258;53.936;27.540;2022-07-04T01:29:14;15.65;;;13.05;;
54360;SDS011;40258;53.936;27.540;2022-07-04T01:31:44;16.95;;;14.77;;
54360;SDS011;40258;53.936;27.540;2022-07-04T01:34:12;20.83;;;14.82;;
54360;SDS011;40258;53.936;27.540;2022-07-04T01:36:41;17.42;;;14.52;;
54360;SDS011;40258;53.936;27.540;2022-07-04T01:39:10;17.20;;;15.27;;
54360;SDS011;40258;53.936;27.540;2022-07-04T01:41:39;18.73;;;15.65;;
54360;SDS011;40258;53.936;27.540;2022-07-04T01:44:07;18.98;;;15.80;;
54360;SDS011;40258;53.936;27.540;2022-07-04T01:46:36;19.83;;;16.90;;
54360;SDS011;40258;53.936;27.540;2022-07-04T01:49:05;19.05;;;15.43;;
54360;SDS011;40258;53.936;27.540;2022-07-04T01:51:34;18.08;;;15.18;;
54360;SDS011;40258;53.936;27.540;2022-07-04T01:54:11;24.60;;;16.50;;
54360;SDS011;40258;53.936;27.540;2022-07-04T01:56:40;19.05;;;16.52;;
54360;SDS011;40258;53.936;27.540;2022-07-04T01:59:08;20.55;;;16.60;;
54360;SDS011;40258;53.936;27.540;2022-07-04T02:01:37;18.05;;;15.02;;
54360;SDS011;40258;53.936;27.540;2022-07-04T02:04:06;18.20;;;15.80;;
54360;SDS011;40258;53.936;27.540;2022-07-04T02:06:35;19.98;;;15.30;;
54360;SDS011;40258;53.936;27.540;2022-07-04T02:09:03;17.15;;;15.25;;
54360;SDS011;40258;53.936;27.540;2022-07-04T02:11:46;16.92;;;14.57;;
54360;SDS011;40258;53.936;27.540;2022-07-04T02:14:33;14.75;;;13.15;;
54360;SDS011;40258;53.936;27.540;2022-07-04T02:17:02;17.25;;;14.05;;
54360;SDS011;40258;53.936;27.540;2022-07-04T02:19:31;18.63;;;14.43;;
54360;SDS011;40258;53.936;27.540;2022-07-04T02:21:59;19.27;;;14.90;;
54360;SDS011;40258;53.936;27.540;2022-07-04T02:24:28;17.45;;;14.20;;
54360;SDS011;40258;53.936;27.540;2022-07-04T02:26:58;15.98;;;13.95;;
54360;SDS011;40258;53.936;27.540;2022-07-04T02:29:27;18.30;;;15.48;;
54360;SDS011;40258;53.936;27.540;2022-07-04T02:31:56;17.77;;;14.85;;
54360;SDS011;40258;53.936;27.540;2022-07-04T02:34:24;15.80;;;14.07;;
54360;SDS011;40258;53.936;27.540;2022-07-04T02:36:53;17.88;;;14.52;;
54360;SDS011;40258;53.936;27.540;2022-07-04T02:39:22;16.25;;;13.52;;
54360;SDS011;40258;53.936;27.540;2022-07-04T02:41:50;16.40;;;13.20;;
54360;SDS011;40258;53.936;27.540;2022-07-04T02:44:20;15.38;;;13.10;;
54360;SDS011;40258;53.936;27.540;2022-07-04T02:46:49;16.17;;;13.68;;
54360;SDS011;40258;53.936;27.540;2022-07-04T02:49:17;16.63;;;14.35;;
54360;SDS011;40258;53.936;27.540;2022-07-04T02:51:46;15.70;;;12.93;;
54360;SDS011;40258;53.936;27.540;2022-07-04T02:54:15;15.63;;;12.50;;
54360;SDS011;40258;53.936;27.540;2022-07-04T02:56:44;16.40;;;12.85;;
54360;SDS011;40258;53.936;27.540;2022-07-04T02:59:12;14.98;;;11.30;;
54360;SDS011;40258;53.936;27.540;2022-07-04T03:01:42;13.52;;;11.60;;
54360;SDS011;40258;53.936;27.540;2022-07-04T03:04:11;14.93;;;12.15;;
54360;SDS011;40258;53.936;27.540;2022-07-04T03:06:40;14.32;;;12.82;;
54360;SDS011;40258;53.936;27.540;2022-07-04T03:09:09;15.90;;;12.18;;
54360;SDS011;40258;53.936;27.540;2022-07-04T03:11:37;17.25;;;13.43;;
54360;SDS011;40258;53.936;27.540;2022-07-04T03:14:06;13.73;;;11.38;;
54360;SDS011;40258;53.936;27.540;2022-07-04T03:16:34;15.95;;;11.68;;
54360;SDS011;40258;53.936;27.540;2022-07-04T03:19:04;13.40;;;11.25;;
54360;SDS011;40258;53.936;27.540;2022-07-04T03:21:33;13.20;;;10.00;;
54360;SDS011;40258;53.936;27.540;2022-07-04T03:24:01;11.35;;;9.50;;
54360;SDS011;40258;53.936;27.540;2022-07-04T03:26:31;11.27;;;9.48;;
54360;SDS011;40258;53.936;27.540;2022-07-04T03:29:00;11.98;;;10.13;;
54360;SDS011;40258;53.936;27.540;2022-07-04T03:31:29;11.80;;;10.00;;
54360;SDS011;40258;53.936;27.540;2022-07-04T03:33:58;11.30;;;10.18;;
54360;SDS011;40258;53.936;27.540;2022-07-04T03:36:28;12.10;;;10.75;;
54360;SDS011;40258;53.936;27.540;2022-07-04T03:38:56;15.00;;;13.07;;
54360;SDS011;40258;53.936;27.540;2022-07-04T03:41:25;13.63;;;11.55;;
54360;SDS011;40258;53.936;27.540;2022-07-04T03:43:53;14.07;;;12.00;;
54360;SDS011;40258;53.936;27.540;2022-07-04T03:46:22;13.90;;;12.40;;
54360;SDS011;40258;53.936;27.540;2022-07-04T03:48:51;15.80;;;12.77;;
54360;SDS011;40258;53.936;27.540;2022-07-04T03:51:21;15.35;;;13.18;;
54360;SDS011;40258;53.936;27.540;2022-07-04T03:53:52;14.73;;;12.90;;
54360;SDS011;40258;53.936;27.540;2022-07-04T03:56:21;15.15;;;13.30;;
54360;SDS011;40258;53.936;27.540;2022-07-04T03:58:50;14.20;;;12.65;;
54360;SDS011;40258;53.936;27.540;2022-07-04T04:01:19;15.60;;;12.75;;
54360;SDS011;40258;53.936;27.540;2022-07-04T04:03:47;16.00;;;13.18;;
54360;SDS011;40258;53.936;27.540;2022-07-04T04:06:33;16.95;;;12.23;;
54360;SDS011;40258;53.936;27.540;2022-07-04T04:09:03;16.63;;;12.75;;
54360;SDS011;40258;53.936;27.540;2022-07-04T04:11:32;14.55;;;12.77;;
54360;SDS011;40258;53.936;27.540;2022-07-04T04:14:01;14.40;;;12.05;;
54360;SDS011;40258;53.936;27.540;2022-07-04T04:16:29;14.60;;;12.50;;
54360;SDS011;40258;53.936;27.540;2022-07-04T04:18:58;18.55;;;12.90;;
54360;SDS011;40258;53.936;27.540;2022-07-04T04:21:27;15.68;;;12.02;;
54360;SDS011;40258;53.936;27.540;2022-07-04T04:23:55;13.88;;;12.30;;
54360;SDS011;40258;53.936;27.540;2022-07-04T04:26:26;14.70;;;11.73;;
54360;SDS011;40258;53.936;27.540;2022-07-04T04:28:54;15.02;;;12.52;;
54360;SDS011;40258;53.936;27.540;2022-07-04T04:31:23;16.20;;;13.75;;
54360;SDS011;40258;53.936;27.540;2022-07-04T04:33:51;13.80;;;11.88;;
54360;SDS011;40258;53.936;27.540;2022-07-04T04:36:20;13.70;;;12.05;;
54360;SDS011;40258;53.936;27.540;2022-07-04T04:38:48;15.50;;;12.07;;
54360;SDS011;40258;53.936;27.540;2022-07-04T04:41:17;12.95;;;11.60;;
54360;SDS011;40258;53.936;27.540;2022-07-04T04:43:47;13.63;;;12.13;;
54360;SDS011;40258;53.936;27.540;2022-07-04T04:46:15;15.10;;;11.70;;
54360;SDS011;40258;53.936;27.540;2022-07-04T04:48:44;13.45;;;11.63;;
54360;SDS011;40258;53.936;27.540;2022-07-04T04:51:12;32.08;;;18.17;;
54360;SDS011;40258;53.936;27.540;2022-07-04T04:53:41;16.05;;;11.45;;
54360;SDS011;40258;53.936;27.540;2022-07-04T04:56:09;12.15;;;10.90;;
54360;SDS011;40258;53.936;27.540;2022-07-04T04:58:38;16.00;;;10.73;;
54360;SDS011;40258;53.936;27.540;2022-07-04T05:01:08;12.82;;;10.40;;
54360;SDS011;40258;53.936;27.540;2022-07-04T05:03:37;12.93;;;10.48;;
54360;SDS011;40258;53.936;27.540;2022-07-04T05:06:06;13.60;;;10.40;;
54360;SDS011;40258;53.936;27.540;2022-07-04T05:08:34;11.10;;;10.00;;
54360;SDS011;40258;53.936;27.540;2022-07-04T05:11:03;12.43;;;9.70;;
54360;SDS011;40258;53.936;27.540;2022-07-04T05:13:32;12.18;;;9.32;;
54360;SDS011;40258;53.936;27.540;2022-07-04T05:16:01;13.02;;;9.77;;
54360;SDS011;40258;53.936;27.540;2022-07-04T05:18:31;11.70;;;9.35;;
54360;SDS011;40258;53.936;27.540;2022-07-04T05:21:00;10.93;;;9.30;;
54360;SDS011;40258;53.936;27.540;2022-07-04T05:23:29;13.18;;;9.02;;
54360;SDS011;40258;53.936;27.540;2022-07-04T05:25:58;11.63;;;9.32;;
54360;SDS011;40258;53.936;27.540;2022-07-04T05:28:26;13.52;;;9.70;;
54360;SDS011;40258;53.936;27.540;2022-07-04T05:30:55;10.80;;;8.90;;
54360;SDS011;40258;53.936;27.540;2022-07-04T05:33:23;12.50;;;9.63;;
54360;SDS011;40258;53.936;27.540;2022-07-04T05:35:53;10.75;;;9.15;;
54360;SDS011;40258;53.936;27.540;2022-07-04T05:38:22;12.43;;;9.93;;
54360;SDS011;40258;53.936;27.540;2022-07-04T05:40:50;11.98;;;9.02;;
54360;SDS011;40258;53.936;27.540;2022-07-04T05:43:19;11.85;;;8.82;;
54360;SDS011;40258;53.936;27.540;2022-07-04T05:45:48;21.48;;;10.10;;
54360;SDS011;40258;53.936;27.540;2022-07-04T05:48:16;14.40;;;9.13;;
54360;SDS011;40258;53.936;27.540;2022-07-04T05:50:45;15.45;;;9.20;;
54360;SDS011;40258;53.936;27.540;2022-07-04T05:53:15;14.43;;;8.82;;
54360;SDS011;40258;53.936;27.540;2022-07-04T05:55:44;8.98;;;7.85;;
54360;SDS011;40258;53.936;27.540;2022-07-04T05:58:12;14.38;;;8.55;;
54360;SDS011;40258;53.936;27.540;2022-07-04T06:00:42;10.85;;;8.23;;
54360;SDS011;40258;53.936;27.540;2022-07-04T06:03:11;11.70;;;8.68;;
54360;SDS011;40258;53.936;27.540;2022-07-04T06:05:39;11.73;;;8.23;;
54360;SDS011;40258;53.936;27.540;2022-07-04T06:08:08;14.20;;;8.98;;
54360;SDS011;40258;53.936;27.540;2022-07-04T06:10:38;11.85;;;8.32;;
54360;SDS011;40258;53.936;27.540;2022-07-04T06:13:07;11.88;;;7.50;;
54360;SDS011;40258;53.936;27.540;2022-07-04T06:15:35;10.88;;;7.85;;
54360;SDS011;40258;53.936;27.540;2022-07-04T06:18:04;16.98;;;8.98;;
54360;SDS011;40258;53.936;27.540;2022-07-04T06:20:32;12.10;;;7.85;;
54360;SDS011;40258;53.936;27.540;2022-07-04T06:23:01;24.05;;;13.63;;
54360;SDS011;40258;53.936;27.540;2022-07-04T06:25:30;11.38;;;7.90;;
54360;SDS011;40258;53.936;27.540;2022-07-04T06:28:01;10.80;;;8.35;;
54360;SDS011;40258;53.936;27.540;2022-07-04T06:30:30;10.32;;;8.32;;
54360;SDS011;40258;53.936;27.540;2022-07-04T06:32:59;16.13;;;9.85;;
54360;SDS011;40258;53.936;27.540;2022-07-04T06:35:28;12.98;;;8.38;;
54360;SDS011;40258;53.936;27.540;2022-07-04T06:40:44;10.02;;;7.43;;
54360;SDS011;40258;53.936;27.540;2022-07-04T06:43:17;11.15;;;7.80;;
54360;SDS011;40258;53.936;27.540;2022-07-04T06:45:45;14.63;;;7.45;;
54360;SDS011;40258;53.936;27.540;2022-07-04T06:48:14;13.95;;;8.75;;
54360;SDS011;40258;53.936;27.540;2022-07-04T06:50:42;11.23;;;6.63;;
54360;SDS011;40258;53.936;27.540;2022-07-04T06:53:11;10.27;;;7.05;;
54360;SDS011;40258;53.936;27.540;2022-07-04T06:55:41;9.38;;;7.25;;
54360;SDS011;40258;53.936;27.540;2022-07-04T06:58:09;12.90;;;7.97;;
54360;SDS011;40258;53.936;27.540;2022-07-04T07:00:41;9.82;;;6.68;;
54360;SDS011;40258;53.936;27.540;2022-07-04T07:03:10;8.55;;;6.75;;
54360;SDS011;40258;53.936;27.540;2022-07-04T07:05:39;9.75;;;7.00;;
54360;SDS011;40258;53.936;27.540;2022-07-04T07:08:07;8.93;;;6.63;;
54360;SDS011;40258;53.936;27.540;2022-07-04T07:10:36;8.30;;;6.15;;
54360;SDS011;40258;53.936;27.540;2022-07-04T07:13:04;10.20;;;7.45;;
54360;SDS011;40258;53.936;27.540;2022-07-04T07:15:33;10.48;;;7.03;;
54360;SDS011;40258;53.936;27.540;2022-07-04T07:18:04;9.52;;;6.03;;
54360;SDS011;40258;53.936;27.540;2022-07-04T07:20:33;9.50;;;5.53;;
54360;SDS011;40258;53.936;27.540;2022-07-04T07:23:02;10.75;;;6.90;;
54360;SDS011;40258;53.936;27.540;2022-07-04T07:25:30;14.55;;;6.45;;
54360;SDS011;40258;53.936;27.540;2022-07-04T07:27:59;16.05;;;6.30;;
54360;SDS011;40258;53.936;27.540;2022-07-04T07:30:28;9.73;;;5.90;;
54360;SDS011;40258;53.936;27.540;2022-07-04T07:32:57;7.20;;;5.63;;
54360;SDS011;40258;53.936;27.540;2022-07-04T07:35:27;7.60;;;5.55;;
54360;SDS011;40258;53.936;27.540;2022-07-04T07:37:55;15.88;;;6.80;;
54360;SDS011;40258;53.936;27.540;2022-07-04T07:40:24;13.15;;;6.45;;
54360;SDS011;40258;53.936;27.540;2022-07-04T07:42:53;9.90;;;6.22;;
54360;SDS011;40258;53.936;27.540;2022-07-04T07:45:23;8.82;;;6.05;;
54360;SDS011;40258;53.936;27.540;2022-07-04T07:47:51;8.13;;;5.55;;
54360;SDS011;40258;53.936;27.540;2022-07-04T07:50:20;8.63;;;5.82;;
54360;SDS011;40258;53.936;27.540;2022-07-04T07:52:50;7.43;;;5.78;;
54360;SDS011;40258;53.936;27.540;2022-07-04T07:55:18;12.63;;;6.88;;
54360;SDS011;40258;53.936;27.540;2022-07-04T07:57:47;8.63;;;5.93;;
54360;SDS011;40258;53.936;27.540;2022-07-04T08:00:16;10.82;;;6.03;;
54360;SDS011;40258;53.936;27.540;2022-07-04T08:02:45;8.23;;;5.93;;
54360;SDS011;40258;53.936;27.540;2022-07-04T08:05:31;9.02;;;5.85;;
54360;SDS011;40258;53.936;27.540;2022-07-04T08:08:01;8.55;;;5.60;;
54360;SDS011;40258;53.936;27.540;2022-07-04T08:10:29;9.40;;;5.65;;
54360;SDS011;40258;53.936;27.540;2022-07-04T08:12:58;8.68;;;5.65;;
54360;SDS011;40258;53.936;27.540;2022-07-04T08:15:26;8.93;;;5.30;;
54360;SDS011;40258;53.936;27.540;2022-07-04T08:17:55;8.27;;;5.70;;
54360;SDS011;40258;53.936;27.540;2022-07-04T08:20:24;10.18;;;6.35;;
54360;SDS011;40258;53.936;27.540;2022-07-04T08:22:52;10.65;;;6.90;;
54360;SDS011;40258;53.936;27.540;2022-07-04T08:25:23;8.40;;;5.78;;
54360;SDS011;40258;53.936;27.540;2022-07-04T08:27:51;8.90;;;5.57;;
54360;SDS011;40258;53.936;27.540;2022-07-04T08:30:20;7.18;;;5.72;;
54360;SDS011;40258;53.936;27.540;2022-07-04T08:32:48;7.82;;;5.95;;
54360;SDS011;40258;53.936;27.540;2022-07-04T08:35:17;10.73;;;5.90;;
54360;SDS011;40258;53.936;27.540;2022-07-04T08:37:46;10.68;;;6.25;;
54360;SDS011;40258;53.936;27.540;2022-07-04T08:40:19;11.15;;;6.70;;
54360;SDS011;40258;53.936;27.540;2022-07-04T08:42:50;14.65;;;6.80;;
54360;SDS011;40258;53.936;27.540;2022-07-04T08:45:21;10.43;;;5.78;;
54360;SDS011;40258;53.936;27.540;2022-07-04T08:47:55;7.65;;;5.75;;
54360;SDS011;40258;53.936;27.540;2022-07-04T08:50:29;8.93;;;6.50;;
54360;SDS011;40258;53.936;27.540;2022-07-04T08:52:59;9.30;;;6.07;;
54360;SDS011;40258;53.936;27.540;2022-07-04T08:55:34;8.57;;;6.40;;
54360;SDS011;40258;53.936;27.540;2022-07-04T08:58:23;8.40;;;6.25;;
54360;SDS011;40258;53.936;27.540;2022-07-04T09:00:53;8.82;;;6.10;;
54360;SDS011;40258;53.936;27.540;2022-07-04T09:03:23;8.95;;;5.90;;
54360;SDS011;40258;53.936;27.540;2022-07-04T09:05:52;7.18;;;5.50;;
54360;SDS011;40258;53.936;27.540;2022-07-04T09:08:21;7.40;;;5.60;;
54360;SDS011;40258;53.936;27.540;2022-07-04T09:10:51;9.95;;;6.30;;
54360;SDS011;40258;53.936;27.540;2022-07-04T09:13:20;10.82;;;6.25;;
54360;SDS011;40258;53.936;27.540;2022-07-04T09:15:50;7.93;;;5.65;;
54360;SDS011;40258;53.936;27.540;2022-07-04T09:18:20;7.15;;;5.97;;
54360;SDS011;40258;53.936;27.540;2022-07-04T09:20:54;7.13;;;5.28;;
54360;SDS011;40258;53.936;27.540;2022-07-04T09:23:25;7.82;;;5.38;;
54360;SDS011;40258;53.936;27.540;2022-07-04T09:26:12;8.23;;;5.38;;
54360;SDS011;40258;53.936;27.540;2022-07-04T09:28:43;7.78;;;5.63;;
54360;SDS011;40258;53.936;27.540;2022-07-04T09:31:21;7.55;;;6.25;;
54360;SDS011;40258;53.936;27.540;2022-07-04T09:33:52;10.93;;;6.28;;
54360;SDS011;40258;53.936;27.540;2022-07-04T09:36:25;9.35;;;5.45;;
54360;SDS011;40258;53.936;27.540;2022-07-04T09:39:05;10.90;;;5.78;;
54360;SDS011;40258;53.936;27.540;2022-07-04T09:41:50;7.93;;;5.68;;
54360;SDS011;40258;53.936;27.540;2022-07-04T09:44:21;8.73;;;5.43;;
54360;SDS011;40258;53.936;27.540;2022-07-04T09:46:52;8.40;;;6.05;;
54360;SDS011;40258;53.936;27.540;2022-07-04T09:49:21;8.40;;;5.22;;
54360;SDS011;40258;53.936;27.540;2022-07-04T09:51:51;10.07;;;5.68;;
54360;SDS011;40258;53.936;27.540;2022-07-04T09:54:22;13.38;;;6.20;;
54360;SDS011;40258;53.936;27.540;2022-07-04T09:56:55;8.32;;;5.63;;
54360;SDS011;40258;53.936;27.540;2022-07-04T09:59:26;9.23;;;5.43;;
54360;SDS011;40258;53.936;27.540;2022-07-04T10:02:07;7.38;;;5.15;;
54360;SDS011;40258;53.936;27.540;2022-07-04T10:04:41;7.28;;;5.40;;
54360;SDS011;40258;53.936;27.540;2022-07-04T10:07:30;7.75;;;5.68;;
54360;SDS011;40258;53.936;27.540;2022-07-04T10:10:10;8.23;;;5.43;;
54360;SDS011;40258;53.936;27.540;2022-07-04T10:12:51;9.50;;;5.68;;
54360;SDS011;40258;53.936;27.540;2022-07-04T10:15:21;6.10;;;4.57;;
54360;SDS011;40258;53.936;27.540;2022-07-04T10:17:51;15.07;;;4.53;;
54360;SDS011;40258;53.936;27.540;2022-07-04T10:20:20;5.68;;;4.20;;
54360;SDS011;40258;53.936;27.540;2022-07-04T10:22:48;8.75;;;4.82;;
54360;SDS011;40258;53.936;27.540;2022-07-04T10:25:17;7.13;;;5.30;;
54360;SDS011;40258;53.936;27.540;2022-07-04T10:27:46;6.75;;;5.13;;
54360;SDS011;40258;53.936;27.540;2022-07-04T10:30:21;7.82;;;5.55;;
54360;SDS011;40258;53.936;27.540;2022-07-04T10:32:55;6.97;;;5.25;;
54360;SDS011;40258;53.936;27.540;2022-07-04T10:35:46;8.57;;;5.17;;
54360;SDS011;40258;53.936;27.540;2022-07-04T10:38:16;7.75;;;4.68;;
54360;SDS011;40258;53.936;27.540;2022-07-04T10:40:47;8.73;;;4.72;;
54360;SDS011;40258;53.936;27.540;2022-07-04T10:43:37;7.78;;;5.05;;
54360;SDS011;40258;53.936;27.540;2022-07-04T10:46:33;6.50;;;4.90;;
54360;SDS011;40258;53.936;27.540;2022-07-04T10:49:07;7.75;;;4.63;;
54360;SDS011;40258;53.936;27.540;2022-07-04T10:51:52;7.65;;;4.95;;
54360;SDS011;40258;53.936;27.540;2022-07-04T10:54:28;9.60;;;4.85;;
54360;SDS011;40258;53.936;27.540;2022-07-04T10:57:06;9.02;;;4.93;;
54360;SDS011;40258;53.936;27.540;2022-07-04T10:59:41;7.93;;;4.80;;
54360;SDS011;40258;53.936;27.540;2022-07-04T11:02:22;5.57;;;4.22;;
54360;SDS011;40258;53.936;27.540;2022-07-04T11:04:58;6.78;;;4.53;;
54360;SDS011;40258;53.936;27.540;2022-07-04T11:10:27;6.28;;;4.47;;
54360;SDS011;40258;53.936;27.540;2022-07-04T11:13:08;6.78;;;4.72;;
54360;SDS011;40258;53.936;27.540;2022-07-04T11:16:03;8.20;;;4.82;;
54360;SDS011;40258;53.936;27.540;2022-07-04T11:18:43;7.80;;;3.95;;
54360;SDS011;40258;53.936;27.540;2022-07-04T11:21:20;6.72;;;4.25;;
54360;SDS011;40258;53.936;27.540;2022-07-04T11:23:51;10.57;;;4.65;;
54360;SDS011;40258;53.936;27.540;2022-07-04T11:26:22;15.55;;;5.85;;
54360;SDS011;40258;53.936;27.540;2022-07-04T11:28:52;7.60;;;5.00;;
54360;SDS011;40258;53.936;27.540;2022-07-04T11:31:35;5.30;;;4.10;;
54360;SDS011;40258;53.936;27.540;2022-07-04T11:34:06;6.68;;;4.20;;
54360;SDS011;40258;53.936;27.540;2022-07-04T11:36:37;6.38;;;4.32;;
54360;SDS011;40258;53.936;27.540;2022-07-04T11:39:08;7.20;;;4.88;;
54360;SDS011;40258;53.936;27.540;2022-07-04T11:41:39;9.45;;;4.57;;
54360;SDS011;40258;53.936;27.540;2022-07-04T11:44:27;6.43;;;4.28;;
54360;SDS011;40258;53.936;27.540;2022-07-04T11:47:16;6.38;;;4.15;;
54360;SDS011;40258;53.936;27.540;2022-07-04T11:49:47;5.50;;;3.97;;
54360;SDS011;40258;53.936;27.540;2022-07-04T11:52:20;8.55;;;4.22;;
54360;SDS011;40258;53.936;27.540;2022-07-04T11:54:50;6.70;;;4.20;;
54360;SDS011;40258;53.936;27.540;2022-07-04T11:57:21;6.85;;;4.35;;
54360;SDS011;40258;53.936;27.540;2022-07-04T11:59:56;6.95;;;4.60;;
54360;SDS011;40258;53.936;27.540;2022-07-04T12:02:28;6.90;;;4.55;;
54360;SDS011;40258;53.936;27.540;2022-07-04T12:05:00;7.38;;;4.03;;
54360;SDS011;40258;53.936;27.540;2022-07-04T12:07:33;7.00;;;4.88;;
54360;SDS011;40258;53.936;27.540;2022-07-04T12:10:07;6.35;;;4.07;;
54360;SDS011;40258;53.936;27.540;2022-07-04T12:12:51;7.32;;;4.57;;
54360;SDS011;40258;53.936;27.540;2022-07-04T12:15:21;7.55;;;4.95;;
54360;SDS011;40258;53.936;27.540;2022-07-04T12:17:52;6.68;;;4.18;;
54360;SDS011;40258;53.936;27.540;2022-07-04T12:20:22;6.15;;;4.47;;
54360;SDS011;40258;53.936;27.540;2022-07-04T12:22:54;6.43;;;4.55;;
54360;SDS011;40258;53.936;27.540;2022-07-04T12:25:25;6.93;;;4.88;;
54360;SDS011;40258;53.936;27.540;2022-07-04T12:27:58;5.57;;;4.28;;
54360;SDS011;40258;53.936;27.540;2022-07-04T12:30:30;12.30;;;5.05;;
54360;SDS011;40258;53.936;27.540;2022-07-04T12:33:01;7.57;;;5.00;;
54360;SDS011;40258;53.936;27.540;2022-07-04T12:35:35;7.30;;;5.07;;
54360;SDS011;40258;53.936;27.540;2022-07-04T12:38:16;8.52;;;4.93;;
54360;SDS011;40258;53.936;27.540;2022-07-04T12:40:51;6.43;;;4.55;;
54360;SDS011;40258;53.936;27.540;2022-07-04T12:43:23;9.32;;;4.80;;
54360;SDS011;40258;53.936;27.540;2022-07-04T12:45:53;8.70;;;4.70;;
54360;SDS011;40258;53.936;27.540;2022-07-04T12:48:23;7.05;;;5.07;;
54360;SDS011;40258;53.936;27.540;2022-07-04T12:50:54;5.82;;;4.28;;
54360;SDS011;40258;53.936;27.540;2022-07-04T12:53:39;5.47;;;4.30;;
54360;SDS011;40258;53.936;27.540;2022-07-04T12:56:09;7.45;;;4.75;;
54360;SDS011;40258;53.936;27.540;2022-07-04T12:58:56;7.55;;;4.35;;
54360;SDS011;40258;53.936;27.540;2022-07-04T13:01:26;12.50;;;5.25;;
54360;SDS011;40258;53.936;27.540;2022-07-04T13:03:54;5.90;;;4.85;;
54360;SDS011;40258;53.936;27.540;2022-07-04T13:06:23;11.10;;;4.47;;
54360;SDS011;40258;53.936;27.540;2022-07-04T13:08:54;6.38;;;4.50;;
54360;SDS011;40258;53.936;27.540;2022-07-04T13:11:23;6.90;;;4.90;;
54360;SDS011;40258;53.936;27.540;2022-07-04T13:14:09;6.53;;;4.53;;
54360;SDS011;40258;53.936;27.540;2022-07-04T13:16:38;5.78;;;4.55;;
54360;SDS011;40258;53.936;27.540;2022-07-04T13:19:06;7.03;;;4.40;;
54360;SDS011;40258;53.936;27.540;2022-07-04T13:21:35;9.23;;;4.20;;
54360;SDS011;40258;53.936;27.540;2022-07-04T13:24:06;5.70;;;3.95;;
54360;SDS011;40258;53.936;27.540;2022-07-04T13:26:35;5.35;;;4.15;;
54360;SDS011;40258;53.936;27.540;2022-07-04T13:29:04;6.45;;;4.78;;
54360;SDS011;40258;53.936;27.540;2022-07-04T13:31:32;8.25;;;4.70;;
54360;SDS011;40258;53.936;27.540;2022-07-04T13:34:01;6.60;;;4.80;;
54360;SDS011;40258;53.936;27.540;2022-07-04T13:36:29;8.30;;;5.20;;
54360;SDS011;40258;53.936;27.540;2022-07-04T13:38:58;6.20;;;4.60;;
54360;SDS011;40258;53.936;27.540;2022-07-04T13:41:28;7.93;;;5.07;;
54360;SDS011;40258;53.936;27.540;2022-07-04T13:43:57;6.47;;;4.78;;
54360;SDS011;40258;53.936;27.540;2022-07-04T13:46:27;8.13;;;4.40;;
54360;SDS011;40258;53.936;27.540;2022-07-04T13:48:57;6.90;;;4.28;;
54360;SDS011;40258;53.936;27.540;2022-07-04T13:51:26;5.75;;;4.35;;
54360;SDS011;40258;53.936;27.540;2022-07-04T13:53:54;7.43;;;4.20;;
54360;SDS011;40258;53.936;27.540;2022-07-04T13:56:23;7.93;;;4.90;;
54360;SDS011;40258;53.936;27.540;2022-07-04T13:58:54;6.35;;;4.50;;
54360;SDS011;40258;53.936;27.540;2022-07-04T14:01:24;6.43;;;4.25;;
54360;SDS011;40258;53.936;27.540;2022-07-04T14:03:52;9.02;;;5.25;;
54360;SDS011;40258;53.936;27.540;2022-07-04T14:06:21;6.50;;;4.28;;
54360;SDS011;40258;53.936;27.540;2022-07-04T14:08:49;6.53;;;4.60;;
54360;SDS011;40258;53.936;27.540;2022-07-04T14:11:18;8.10;;;4.50;;
54360;SDS011;40258;53.936;27.540;2022-07-04T14:13:46;9.13;;;4.97;;
54360;SDS011;40258;53.936;27.540;2022-07-04T14:16:18;9.35;;;4.82;;
54360;SDS011;40258;53.936;27.540;2022-07-04T14:18:46;6.60;;;4.70;;
54360;SDS011;40258;53.936;27.540;2022-07-04T14:21:15;6.40;;;3.90;;
54360;SDS011;40258;53.936;27.540;2022-07-04T14:23:43;7.30;;;4.18;;
54360;SDS011;40258;53.936;27.540;2022-07-04T14:26:12;7.15;;;4.15;;
54360;SDS011;40258;53.936;27.540;2022-07-04T14:28:45;9.13;;;4.47;;
54360;SDS011;40258;53.936;27.540;2022-07-04T14:31:14;7.20;;;4.47;;
54360;SDS011;40258;53.936;27.540;2022-07-04T14:33:44;6.30;;;4.88;;
54360;SDS011;40258;53.936;27.540;2022-07-04T14:36:12;5.60;;;4.55;;
54360;SDS011;40258;53.936;27.540;2022-07-04T14:38:42;7.28;;;4.95;;
54360;SDS011;40258;53.936;27.540;2022-07-04T14:41:10;6.18;;;4.82;;
54360;SDS011;40258;53.936;27.540;2022-07-04T14:43:39;6.05;;;4.80;;
54360;SDS011;40258;53.936;27.540;2022-07-04T14:46:09;8.90;;;4.72;;
54360;SDS011;40258;53.936;27.540;2022-07-04T14:48:38;7.55;;;4.40;;
54360;SDS011;40258;53.936;27.540;2022-07-04T14:51:08;7.20;;;4.38;;